Time;durP1;ratioP1;P1;durP2;ratioP2;P2;SDS_P1;SDS_P2;PMS_P1;PMS_P2;Temp;Humidity;BMP_temperature;BMP_pressure;BME280_temperature;BME280_humidity;BME280_pressure;Samples;Min_cycle;Max_cycle;Signal;HPM_P1;HPM_P2
2022/12/28 00:01:27;;;;;;;19.67;6.10;;;;;;;2.19;100.00;100557.25;5224430;23;20212;-74
2022/12/28 00:03:54;;;;;;;13.60;6.07;;;;;;;2.18;100.00;100565.19;5020907;23;20272;-72
2022/12/28 00:06:23;;;;;;;23.27;6.53;;;;;;;2.26;100.00;100552.50;4978329;23;20268;-75
2022/12/28 00:08:53;;;;;;;16.77;6.07;;;;;;;2.21;100.00;100552.75;4963485;23;20277;-74
2022/12/28 00:11:20;;;;;;;14.77;5.30;;;;;;;2.19;100.00;100552.00;4978956;23;20210;-72
2022/12/28 00:13:58;;;;;;;17.83;6.07;;;;;;;2.21;100.00;100560.63;5017324;23;20205;-72
2022/12/28 00:16:33;;;;;;;20.60;6.27;;;;;;;2.19;100.00;100551.16;4990328;23;20211;-72
2022/12/28 00:19:02;;;;;;;12.50;5.83;;;;;;;2.23;100.00;100552.69;4997844;23;23977;-73
2022/12/28 00:21:29;;;;;;;16.17;5.83;;;;;;;2.19;100.00;100556.41;5013507;23;21487;-73
2022/12/28 00:23:57;;;;;;;16.77;6.83;;;;;;;2.17;100.00;100558.28;4990651;23;20209;-71
2022/12/28 00:26:26;;;;;;;15.73;5.97;;;;;;;2.11;100.00;100557.69;5053012;23;21593;-75
2022/12/28 00:28:52;;;;;;;17.67;6.30;;;;;;;2.13;100.00;100554.13;4993662;23;20234;-75
2022/12/28 00:31:29;;;;;;;17.40;6.40;;;;;;;2.13;100.00;100559.38;4997075;23;21164;-76
2022/12/28 00:33:55;;;;;;;17.13;6.30;;;;;;;2.15;100.00;100560.13;4972712;23;20210;-75
2022/12/28 00:36:22;;;;;;;16.83;6.07;;;;;;;2.19;100.00;100559.03;5000019;23;20244;-75
2022/12/28 00:38:48;;;;;;;17.53;6.43;;;;;;;2.09;100.00;100556.09;4993999;23;20202;-73
2022/12/28 00:41:15;;;;;;;17.17;6.23;;;;;;;2.13;100.00;100562.88;4987520;23;20206;-75
2022/12/28 00:43:42;;;;;;;18.40;6.63;;;;;;;2.16;100.00;100569.72;4997756;23;20311;-73
2022/12/28 00:46:08;;;;;;;14.07;5.70;;;;;;;2.10;100.00;100569.09;5000920;23;25204;-73
2022/12/28 00:48:35;;;;;;;16.10;6.20;;;;;;;2.15;100.00;100574.09;4989980;23;21892;-73
2022/12/28 00:51:13;;;;;;;13.27;5.97;;;;;;;2.08;100.00;100570.13;4978653;23;20202;-74
2022/12/28 00:53:40;;;;;;;18.07;5.97;;;;;;;2.10;100.00;100574.34;5015923;23;20209;-72
2022/12/28 00:56:13;;;;;;;14.03;5.47;;;;;;;2.10;100.00;100574.34;4995896;23;21122;-72
2022/12/28 00:58:40;;;;;;;19.27;5.70;;;;;;;2.03;100.00;100572.19;5089180;23;20205;-73
2022/12/28 01:01:12;;;;;;;14.53;5.73;;;;;;;2.04;100.00;100569.47;4989673;23;21141;-72
2022/12/28 01:03:39;;;;;;;17.37;5.20;;;;;;;2.07;100.00;100577.16;5089277;23;20316;-74
2022/12/28 01:06:07;;;;;;;16.37;6.37;;;;;;;2.09;100.00;100571.84;4991170;23;20277;-74
2022/12/28 01:08:37;;;;;;;13.80;5.33;;;;;;;2.09;100.00;100571.84;4989014;23;20272;-74
2022/12/28 01:11:07;;;;;;;15.30;5.40;;;;;;;2.04;100.00;100573.88;4989236;23;20206;-77
2022/12/28 01:13:34;;;;;;;17.80;5.80;;;;;;;2.01;100.00;100568.78;5004704;23;20565;-77
2022/12/28 01:16:19;;;;;;;18.20;6.03;;;;;;;1.96;100.00;100576.91;4968266;23;20484;-74
2022/12/28 01:18:46;;;;;;;18.13;5.47;;;;;;;2.05;100.00;100565.06;5035355;23;20313;-72
2022/12/28 01:21:19;;;;;;;17.13;5.93;;;;;;;1.89;100.00;100565.09;4971103;23;26083;-73
2022/12/28 01:23:46;;;;;;;17.33;5.40;;;;;;;1.92;100.00;100572.81;4970084;23;20256;-72
2022/12/28 01:26:13;;;;;;;16.47;5.50;;;;;;;1.97;100.00;100568.13;4997496;23;20206;-74
2022/12/28 01:28:40;;;;;;;18.60;5.43;;;;;;;1.96;100.00;100561.19;4970431;23;20289;-74
2022/12/28 01:31:12;;;;;;;16.90;5.47;;;;;;;1.93;100.00;100560.53;4986671;23;20206;-75
2022/12/28 01:33:39;;;;;;;16.10;6.10;;;;;;;1.82;100.00;100558.50;5045691;23;20213;-72
2022/12/28 01:36:08;;;;;;;19.00;5.50;;;;;;;1.85;100.00;100558.31;4984967;23;20240;-72
2022/12/28 01:38:35;;;;;;;18.63;5.43;;;;;;;1.86;100.00;100550.34;4987788;23;20603;-72
2022/12/28 01:41:01;;;;;;;15.17;5.77;;;;;;;1.79;100.00;100553.41;4994584;23;20206;-73
2022/12/28 01:43:54;;;;;;;13.17;5.47;;;;;;;1.89;100.00;100555.44;4994385;23;21770;-76
2022/12/28 01:46:21;;;;;;;15.83;6.07;;;;;;;1.90;100.00;100551.03;5018369;23;20285;-77
2022/12/28 01:48:56;;;;;;;16.73;6.27;;;;;;;1.83;100.00;100547.91;4983472;23;20218;-74
2022/12/28 01:51:23;;;;;;;19.70;5.77;;;;;;;1.82;100.00;100558.50;4989967;23;20220;-73
2022/12/28 01:53:51;;;;;;;16.80;6.00;;;;;;;1.79;100.00;100549.00;4994280;23;20341;-72
2022/12/28 01:56:19;;;;;;;15.67;6.73;;;;;;;1.75;100.00;100562.38;4992131;23;20210;-74
2022/12/28 01:58:45;;;;;;;23.93;6.20;;;;;;;1.78;100.00;100559.59;4986913;23;22181;-72
2022/12/28 02:01:12;;;;;;;20.83;6.63;;;;;;;1.80;100.00;100560.34;4960322;23;20207;-73
2022/12/28 02:03:39;;;;;;;18.43;6.23;;;;;;;1.71;100.00;100553.00;4985218;23;20606;-74
2022/12/28 02:06:08;;;;;;;23.97;6.80;;;;;;;1.70;100.00;100557.41;5024077;23;20277;-76
2022/12/28 02:08:40;;;;;;;21.37;6.87;;;;;;;1.69;100.00;100564.44;4989264;23;20253;-75
2022/12/28 02:11:10;;;;;;;24.20;6.63;;;;;;;1.64;100.00;100557.75;4997657;23;20608;-75
2022/12/28 02:13:38;;;;;;;15.87;6.13;;;;;;;1.55;100.00;100553.84;4996217;23;22206;-73
2022/12/28 02:16:04;;;;;;;23.00;7.20;;;;;;;1.58;100.00;100556.31;4992371;23;21726;-73
2022/12/28 02:18:31;;;;;;;16.80;6.57;;;;;;;1.57;100.00;100553.75;4983868;23;20287;-71
2022/12/28 02:21:24;;;;;;;16.60;6.93;;;;;;;1.50;100.00;100540.16;4991180;23;20210;-72
2022/12/28 02:24:15;;;;;;;20.87;7.03;;;;;;;1.49;100.00;100541.06;5030638;23;22154;-74
2022/12/28 02:27:03;;;;;;;17.83;7.33;;;;;;;1.42;100.00;100539.72;5043983;23;20222;-74
2022/12/28 02:29:33;;;;;;;20.40;6.80;;;;;;;1.29;100.00;100528.19;5011820;23;20235;-71
2022/12/28 02:32:14;;;;;;;22.23;7.07;;;;;;;1.17;100.00;100525.34;4981333;23;20388;-73
2022/12/28 02:34:47;;;;;;;18.77;7.53;;;;;;;1.13;100.00;100523.78;4994198;23;23261;-73
2022/12/28 02:37:32;;;;;;;25.23;7.80;;;;;;;1.11;100.00;100530.06;4975580;23;20221;-78
2022/12/28 02:40:04;;;;;;;23.27;7.27;;;;;;;1.08;100.00;100528.44;4990517;23;20227;-76
2022/12/28 02:42:30;;;;;;;19.23;7.33;;;;;;;1.10;100.00;100529.22;5015481;23;20218;-77
2022/12/28 02:50:53;;;;;;;22.07;7.57;;;;;;;0.99;100.00;100534.19;5066800;23;21450;-75
2022/12/28 02:53:30;;;;;;;25.50;8.60;;;;;;;0.89;100.00;100519.84;5039670;23;21448;-70
2022/12/28 02:56:22;;;;;;;19.33;7.90;;;;;;;0.76;100.00;100517.88;5023250;23;20212;-73
2022/12/28 02:59:23;;;;;;;20.33;7.83;;;;;;;0.68;100.00;100520.06;5016216;23;22083;-74
2022/12/28 03:02:09;;;;;;;25.87;8.63;;;;;;;0.57;100.00;100517.16;5008201;23;20210;-72
2022/12/28 03:04:42;;;;;;;20.50;8.30;;;;;;;0.47;100.00;100523.78;5011533;23;20214;-78
2022/12/28 03:10:22;;;;;;;23.30;7.90;;;;;;;0.61;100.00;100526.56;4989735;23;20812;-73
2022/12/28 03:12:56;;;;;;;22.00;8.30;;;;;;;0.51;100.00;100530.56;5006292;23;20558;-72
2022/12/28 03:15:33;;;;;;;21.87;7.57;;;;;;;0.51;100.00;100526.16;4986477;23;20643;-74
2022/12/28 03:32:11;;;;;;;22.73;8.40;;;;;;;0.68;100.00;100517.47;4975157;23;22146;-73
2022/12/28 03:34:37;;;;;;;24.10;8.67;;;;;;;0.74;100.00;100526.75;5013535;23;20217;-72
2022/12/28 03:37:24;;;;;;;27.73;8.80;;;;;;;0.84;100.00;100520.09;4993650;23;20222;-75
2022/12/28 03:40:33;;;;;;;22.73;8.03;;;;;;;0.83;100.00;100511.41;5005911;23;20266;-73
2022/12/28 03:46:14;;;;;;;21.10;7.40;;;;;;;1.02;100.00;100505.19;5065139;23;20203;-72
2022/12/28 03:48:42;;;;;;;18.63;8.03;;;;;;;1.03;100.00;100502.50;5029919;23;20372;-74
2022/12/28 03:51:10;;;;;;;19.33;7.03;;;;;;;1.03;100.00;100496.38;4976093;23;20206;-75
2022/12/28 03:53:40;;;;;;;20.67;7.70;;;;;;;0.96;100.00;100492.41;4978963;23;20392;-75
2022/12/28 03:56:15;;;;;;;22.10;7.77;;;;;;;0.97;100.00;100486.25;5000602;23;20311;-73
2022/12/28 03:58:42;;;;;;;17.77;8.30;;;;;;;0.95;100.00;100467.13;5003324;23;20206;-74
2022/12/28 04:01:08;;;;;;;21.97;7.80;;;;;;;0.98;100.00;100459.97;4974534;23;20209;-74
2022/12/28 04:03:35;;;;;;;23.47;8.10;;;;;;;0.88;100.00;100460.53;4991485;23;20208;-72
2022/12/28 04:06:03;;;;;;;18.90;7.97;;;;;;;0.96;100.00;100460.97;4997206;23;20299;-73
2022/12/28 04:08:30;;;;;;;17.90;8.30;;;;;;;0.89;100.00;100456.97;5001227;23;21913;-74
2022/12/28 04:11:00;;;;;;;21.70;8.80;;;;;;;0.89;100.00;100452.59;4992351;23;21021;-72
2022/12/28 04:13:30;;;;;;;16.87;7.93;;;;;;;0.90;100.00;100450.81;4988379;23;20221;-75
2022/12/28 04:15:58;;;;;;;19.53;8.80;;;;;;;0.82;100.00;100451.25;4997778;23;20206;-74
2022/12/28 04:18:24;;;;;;;21.20;9.80;;;;;;;0.87;100.00;100453.59;4995321;23;20504;-74
2022/12/28 04:20:51;;;;;;;18.47;8.37;;;;;;;0.78;100.00;100453.16;4970568;23;20210;-72
2022/12/28 04:23:17;;;;;;;27.90;9.60;;;;;;;0.79;100.00;100462.72;4998072;23;20446;-76
2022/12/28 04:25:58;;;;;;;22.07;9.73;;;;;;;0.68;100.00;100453.72;4998927;23;20790;-75
2022/12/28 04:28:25;;;;;;;21.70;9.10;;;;;;;0.71;100.00;100454.44;4994803;23;20274;-71
2022/12/28 04:30:52;;;;;;;22.37;9.30;;;;;;;0.68;100.00;100454.59;4981812;23;20209;-71
2022/12/28 04:33:19;;;;;;;17.67;8.33;;;;;;;0.61;100.00;100454.06;4991676;23;20206;-77
2022/12/28 04:35:45;;;;;;;26.83;9.07;;;;;;;0.55;100.00;100449.16;5018249;23;20213;-72
2022/12/28 04:38:12;;;;;;;22.13;8.63;;;;;;;0.58;100.00;100453.38;4963698;23;20283;-71
2022/12/28 04:40:38;;;;;;;24.87;9.20;;;;;;;0.50;100.00;100459.03;4996675;23;20492;-72
2022/12/28 04:43:05;;;;;;;29.43;8.63;;;;;;;0.47;100.00;100466.19;4987071;23;20266;-73
2022/12/28 04:45:32;;;;;;;21.70;9.43;;;;;;;0.50;100.00;100466.88;5007861;23;20322;-73
2022/12/28 04:47:59;;;;;;;26.97;9.13;;;;;;;0.50;100.00;100458.19;4971791;23;20236;-73
2022/12/28 04:50:26;;;;;;;30.43;9.83;;;;;;;0.39;100.00;100464.81;4979494;23;20229;-74
2022/12/28 04:52:53;;;;;;;25.67;9.23;;;;;;;0.31;100.00;100453.91;4996431;23;20210;-72
2022/12/28 04:55:20;;;;;;;22.07;8.90;;;;;;;0.33;100.00;100453.84;4995615;23;20763;-72
2022/12/28 04:57:59;;;;;;;26.30;10.10;;;;;;;0.32;100.00;100457.34;4989673;23;21167;-76
2022/12/28 05:00:25;;;;;;;26.90;10.03;;;;;;;0.29;100.00;100462.75;5014531;23;23547;-73
2022/12/28 05:02:52;;;;;;;25.27;9.63;;;;;;;0.33;100.00;100459.06;4980739;23;20218;-75
2022/12/28 05:05:19;;;;;;;21.17;9.33;;;;;;;0.34;100.00;100458.13;4978477;23;20465;-75
2022/12/28 05:07:45;;;;;;;26.87;9.80;;;;;;;0.23;100.00;100453.44;4986337;23;20213;-73
2022/12/28 05:10:12;;;;;;;19.80;10.70;;;;;;;0.32;100.00;100455.59;4994842;23;21643;-73
2022/12/28 05:12:38;;;;;;;28.93;10.27;;;;;;;0.32;100.00;100450.34;4994628;23;21122;-74
2022/12/28 05:15:05;;;;;;;27.07;10.40;;;;;;;0.30;100.00;100453.97;4977799;23;20273;-65
2022/12/28 05:17:32;;;;;;;24.77;10.57;;;;;;;0.25;100.00;100445.50;4962428;23;20825;-65
2022/12/28 05:19:59;;;;;;;27.07;10.50;;;;;;;0.21;100.00;100444.81;5052649;23;20249;-66
2022/12/28 05:22:25;;;;;;;25.23;9.67;;;;;;;0.07;100.00;100439.44;4990916;23;20539;-67
2022/12/28 05:24:52;;;;;;;26.07;10.33;;;;;;;0.12;100.00;100442.69;4989833;23;20247;-65
2022/12/28 05:27:19;;;;;;;28.90;10.30;;;;;;;0.04;100.00;100447.47;4986280;23;20213;-64
2022/12/28 05:29:45;;;;;;;24.60;9.83;;;;;;;0.11;100.00;100459.31;4992355;23;21723;-67
2022/12/28 05:32:12;;;;;;;22.13;9.07;;;;;;;0.15;100.00;100443.38;4993443;23;20212;-67
2022/12/28 05:34:38;;;;;;;21.20;9.57;;;;;;;0.20;100.00;100443.13;4977337;23;20618;-65
2022/12/28 05:37:05;;;;;;;20.53;9.43;;;;;;;0.15;100.00;100443.38;4986846;23;20231;-65
2022/12/28 05:39:31;;;;;;;20.67;9.27;;;;;;;0.16;100.00;100437.22;5017612;23;20224;-66
2022/12/28 05:41:59;;;;;;;21.30;9.40;;;;;;;0.10;100.00;100437.53;5016258;23;20562;-68
2022/12/28 05:44:26;;;;;;;25.20;10.43;;;;;;;0.01;100.00;100439.78;4986931;23;20225;-67
2022/12/28 05:46:53;;;;;;;23.10;10.20;;;;;;;0.08;100.00;100434.13;4994929;23;20210;-66
2022/12/28 05:49:19;;;;;;;25.97;10.17;;;;;;;0.02;100.00;100428.38;4996559;23;20272;-66
2022/12/28 05:51:49;;;;;;;27.97;10.33;;;;;;;0.01;100.00;100419.69;5029995;23;20206;-67
2022/12/28 05:54:15;;;;;;;23.80;9.80;;;;;;;-0.03;100.00;100412.91;4981558;23;20209;-67
2022/12/28 05:56:42;;;;;;;26.33;10.93;;;;;;;0.01;100.00;100405.75;4983793;23;20526;-65
2022/12/28 05:59:09;;;;;;;25.80;9.90;;;;;;;-0.08;100.00;100413.13;5001581;23;23474;-68
2022/12/28 06:01:37;;;;;;;26.07;10.13;;;;;;;-0.04;100.00;100414.69;4996706;23;20317;-65
2022/12/28 06:04:13;;;;;;;27.30;10.30;;;;;;;-0.04;100.00;100422.53;5007305;23;22817;-67
2022/12/28 06:06:40;;;;;;;25.77;10.67;;;;;;;-0.02;100.00;100422.47;4996980;23;21131;-65
2022/12/28 06:09:06;;;;;;;26.70;9.73;;;;;;;-0.04;100.00;100422.53;5016948;23;20213;-66
2022/12/28 06:11:33;;;;;;;24.33;9.80;;;;;;;-0.06;100.00;100415.69;5006260;23;20257;-67
2022/12/28 06:13:59;;;;;;;21.40;9.50;;;;;;;-0.14;100.00;100412.59;4987881;23;20229;-66
2022/12/28 06:16:28;;;;;;;25.20;11.00;;;;;;;-0.04;100.00;100416.47;4984856;23;20217;-66
2022/12/28 06:18:55;;;;;;;21.43;9.87;;;;;;;-0.17;100.00;100415.38;4988378;23;20211;-67
2022/12/28 06:21:24;;;;;;;24.53;9.77;;;;;;;-0.09;100.00;100419.31;4986920;23;20211;-66
2022/12/28 06:23:51;;;;;;;22.83;9.60;;;;;;;-0.09;100.00;100423.69;4974200;23;20207;-66
2022/12/28 06:26:19;;;;;;;24.47;10.70;;;;;;;-0.07;100.00;100409.63;4984051;23;20265;-67
2022/12/28 06:28:46;;;;;;;20.53;9.50;;;;;;;-0.13;100.00;100404.69;4993719;23;23351;-65
2022/12/28 06:31:21;;;;;;;21.90;9.23;;;;;;;-0.11;100.00;100405.47;4998595;23;20417;-67
2022/12/28 06:33:49;;;;;;;22.50;9.57;;;;;;;-0.13;100.00;100417.75;5017241;23;20206;-66
2022/12/28 06:36:18;;;;;;;26.70;10.67;;;;;;;-0.18;100.00;100413.69;4994464;23;20661;-67
2022/12/28 06:38:47;;;;;;;23.97;10.47;;;;;;;-0.25;100.00;100407.94;5023670;23;20291;-66
2022/12/28 06:41:16;;;;;;;26.40;10.47;;;;;;;-0.14;100.00;100413.47;4977322;23;20585;-66
2022/12/28 06:43:43;;;;;;;26.93;10.47;;;;;;;-0.18;100.00;100411.94;4986868;23;20648;-67
2022/12/28 06:46:10;;;;;;;27.77;10.67;;;;;;;-0.19;100.00;100402.38;4981205;23;21825;-66
2022/12/28 06:48:37;;;;;;;26.27;10.43;;;;;;;-0.14;100.00;100395.16;5001988;23;25387;-67
2022/12/28 06:51:06;;;;;;;28.43;10.67;;;;;;;-0.11;100.00;100404.63;4994495;23;20258;-69
2022/12/28 06:53:35;;;;;;;24.77;10.90;;;;;;;-0.22;100.00;100407.75;5021249;23;21777;-67
2022/12/28 06:56:07;;;;;;;26.03;11.13;;;;;;;-0.24;100.00;100396.53;5031037;23;22254;-65
2022/12/28 06:58:34;;;;;;;27.73;11.53;;;;;;;-0.23;100.00;100395.63;5027028;23;20662;-66
2022/12/28 07:01:09;;;;;;;29.33;11.53;;;;;;;-0.16;100.00;100394.38;5269904;23;20207;-65
2022/12/28 07:03:36;;;;;;;29.20;10.07;;;;;;;-0.10;100.00;100403.69;5313133;23;20205;-67
2022/12/28 07:06:04;;;;;;;33.30;11.70;;;;;;;-0.11;100.00;100395.00;5264175;23;20306;-66
2022/12/28 07:08:31;;;;;;;27.80;10.37;;;;;;;-0.09;100.00;100394.94;5244280;23;20214;-66
2022/12/28 07:11:24;;;;;;;39.03;10.83;;;;;;;-0.17;100.00;100387.44;5153501;23;20207;-66
2022/12/28 07:13:51;;;;;;;32.23;11.33;;;;;;;-0.08;100.00;100381.75;5270774;23;20674;-65
2022/12/28 07:16:20;;;;;;;28.07;11.07;;;;;;;-0.01;100.00;100372.66;5358662;23;21063;-68
2022/12/28 07:18:50;;;;;;;28.80;10.77;;;;;;;0.06;100.00;100375.81;5230771;23;20207;-71
2022/12/28 07:21:29;;;;;;;25.20;10.50;;;;;;;0.01;100.00;100371.75;5169664;23;20255;-66
2022/12/28 07:23:56;;;;;;;22.93;10.63;;;;;;;0.12;100.00;100369.44;5159246;23;20209;-69
2022/12/28 07:26:26;;;;;;;26.57;11.10;;;;;;;0.15;100.00;100361.41;5170803;23;21899;-71
2022/12/28 07:28:54;;;;;;;27.97;10.97;;;;;;;0.29;100.00;100366.75;5158386;23;21228;-68
2022/12/28 07:31:23;;;;;;;31.93;10.33;;;;;;;0.25;100.00;100361.78;5071416;23;20206;-66
2022/12/28 07:33:51;;;;;;;28.53;10.17;;;;;;;0.31;100.00;100364.91;5027746;23;20293;-66
2022/12/28 07:36:22;;;;;;;26.17;10.43;;;;;;;0.30;100.00;100365.81;5038451;23;25470;-70
2022/12/28 07:38:49;;;;;;;26.20;10.60;;;;;;;0.26;100.00;100359.09;5087852;23;20819;-70
2022/12/28 07:41:22;;;;;;;24.83;10.47;;;;;;;0.38;100.00;100365.44;5033402;23;21824;-67
2022/12/28 07:43:49;;;;;;;33.03;10.37;;;;;;;0.39;100.00;100364.50;5032601;23;20253;-69
2022/12/28 07:46:19;;;;;;;28.97;10.57;;;;;;;0.50;100.00;100377.88;5005210;23;20210;-65
2022/12/28 07:48:46;;;;;;;29.33;11.57;;;;;;;0.55;100.00;100369.75;5083408;23;20376;-65
2022/12/28 07:51:15;;;;;;;28.53;11.13;;;;;;;0.59;100.00;100363.44;5015232;23;20373;-66
2022/12/28 07:53:43;;;;;;;22.80;10.23;;;;;;;0.73;100.00;100370.56;5046072;23;20302;-66
2022/12/28 07:56:10;;;;;;;27.90;11.40;;;;;;;0.75;100.00;100363.44;5080797;23;20665;-67
2022/12/28 07:58:38;;;;;;;24.13;9.93;;;;;;;0.76;100.00;100363.34;5039350;23;20530;-67
2022/12/28 08:01:04;;;;;;;29.37;11.20;;;;;;;0.81;100.00;100370.97;5005507;23;20210;-68
2022/12/28 08:03:31;;;;;;;25.07;10.90;;;;;;;0.97;100.00;100370.97;5025156;23;22213;-66
2022/12/28 08:06:06;;;;;;;26.40;10.63;;;;;;;1.00;100.00;100370.78;4994549;23;22871;-66
2022/12/28 08:08:34;;;;;;;22.30;9.87;;;;;;;1.04;100.00;100367.91;5016372;23;20217;-67
2022/12/28 08:11:05;;;;;;;22.90;10.30;;;;;;;1.13;100.00;100366.56;4986927;23;21426;-66
2022/12/28 08:13:34;;;;;;;21.30;9.47;;;;;;;1.13;100.00;100350.84;5072660;23;20256;-67
2022/12/28 08:16:01;;;;;;;27.73;10.70;;;;;;;1.22;100.00;100354.72;5024138;23;20237;-69
2022/12/28 08:18:28;;;;;;;18.00;8.97;;;;;;;1.22;100.00;100352.94;5001865;23;20241;-70
2022/12/28 08:21:03;;;;;;;27.30;9.57;;;;;;;1.26;100.00;100357.06;4977504;23;20210;-69
2022/12/28 08:23:30;;;;;;;19.47;8.50;;;;;;;1.26;100.00;100357.06;5021927;23;25125;-70
2022/12/28 09:09:09;;;;;;;21.03;8.10;;;;;;;3.81;89.65;100359.59;4309355;27;22308;-65
2022/12/28 09:11:37;;;;;;;15.97;6.83;;;;;;;3.65;90.71;100353.66;4338607;27;21513;-65
2022/12/28 09:14:06;;;;;;;16.63;8.20;;;;;;;3.61;90.48;100357.47;4307721;27;20343;-67
2022/12/28 09:16:33;;;;;;;22.13;7.77;;;;;;;3.32;91.44;100354.13;4260563;28;21537;-67
2022/12/28 09:19:02;;;;;;;24.90;8.17;;;;;;;3.28;91.66;100353.50;4284291;27;20251;-68
2022/12/28 09:21:35;;;;;;;25.73;8.73;;;;;;;3.45;91.95;100346.28;4294739;27;20962;-66
2022/12/28 09:24:03;;;;;;;22.37;8.23;;;;;;;3.44;90.75;100341.94;4268863;28;20569;-65
2022/12/28 09:26:31;;;;;;;19.13;7.70;;;;;;;3.27;91.99;100341.28;4312993;27;20239;-67
2022/12/28 09:29:00;;;;;;;21.80;8.27;;;;;;;3.25;92.80;100343.16;4273646;27;21342;-66
2022/12/28 09:31:28;;;;;;;20.10;8.07;;;;;;;3.32;91.94;100339.19;4277855;28;20233;-67
2022/12/28 09:34:01;;;;;;;18.00;7.87;;;;;;;3.53;91.54;100331.66;4271390;27;20776;-65
2022/12/28 09:36:47;;;;;;;18.30;7.70;;;;;;;3.70;89.89;100332.31;4304939;28;20237;-67
2022/12/28 09:39:23;;;;;;;14.00;7.37;;;;;;;3.56;90.48;100320.13;4271734;28;20227;-68
2022/12/28 09:42:02;;;;;;;20.13;7.67;;;;;;;3.64;89.93;100307.25;4298307;28;20227;-66
2022/12/28 09:45:00;;;;;;;15.30;6.97;;;;;;;3.86;88.92;100301.38;4273746;28;21561;-63
2022/12/28 09:47:46;;;;;;;21.20;7.20;;;;;;;4.02;88.29;100301.16;4307030;28;20454;-67
2022/12/28 09:50:15;;;;;;;15.77;6.93;;;;;;;4.28;86.96;100301.97;4293687;28;20428;-65
2022/12/28 09:53:02;;;;;;;16.77;6.60;;;;;;;4.18;85.36;100296.50;4271202;28;22269;-65
2022/12/28 09:55:30;;;;;;;18.20;6.57;;;;;;;4.23;85.25;100294.38;4260064;28;23549;-68
2022/12/28 09:57:58;;;;;;;20.70;5.60;;;;;;;4.22;85.18;100282.19;4250588;28;20233;-67
2022/12/28 10:00:35;;;;;;;19.67;6.20;;;;;;;4.20;85.61;100277.97;4230229;28;20244;-66
2022/12/28 10:03:06;;;;;;;13.33;6.07;;;;;;;4.19;84.68;100271.88;4246940;28;20229;-67
2022/12/28 10:05:33;;;;;;;18.27;6.03;;;;;;;4.19;84.17;100269.25;4241650;28;20310;-66
2022/12/28 10:07:59;;;;;;;16.83;5.50;;;;;;;4.20;84.38;100262.19;4273659;28;21214;-68
2022/12/28 10:10:27;;;;;;;15.00;5.77;;;;;;;4.34;83.53;100261.19;4319087;28;22603;-65
2022/12/28 10:12:54;;;;;;;14.13;5.77;;;;;;;4.59;82.23;100265.56;4252759;28;20922;-65
2022/12/28 10:15:22;;;;;;;12.93;5.17;;;;;;;4.75;80.82;100257.34;4261607;28;20517;-66
2022/12/28 10:17:48;;;;;;;17.30;5.60;;;;;;;4.99;79.32;100260.00;4262187;28;20429;-66
2022/12/28 10:20:19;;;;;;;17.17;5.27;;;;;;;5.02;78.32;100254.50;4288507;28;20239;-68
2022/12/28 10:22:52;;;;;;;14.23;5.60;;;;;;;4.99;77.70;100260.00;4265820;28;21797;-64
2022/12/28 10:25:24;;;;;;;15.80;5.50;;;;;;;4.83;79.11;100247.94;4279484;28;20245;-63
2022/12/28 10:27:52;;;;;;;13.47;5.07;;;;;;;4.77;78.17;100251.00;4257475;28;21195;-65
2022/12/28 10:30:25;;;;;;;13.63;5.87;;;;;;;4.75;79.71;100246.81;4249233;28;25412;-63
2022/12/28 10:32:54;;;;;;;13.27;5.30;;;;;;;4.50;80.15;100248.63;4291720;28;20226;-66
2022/12/28 10:35:34;;;;;;;14.27;5.27;;;;;;;4.57;80.02;100235.84;4264268;28;20230;-65
2022/12/28 10:38:03;;;;;;;17.40;5.83;;;;;;;4.45;80.32;100227.03;4272782;28;20237;-67
2022/12/28 10:40:33;;;;;;;13.03;5.07;;;;;;;4.45;79.70;100224.41;4263204;28;21650;-68
2022/12/28 10:42:59;;;;;;;16.63;5.10;;;;;;;4.41;80.22;100222.94;4276886;28;20445;-65
2022/12/28 10:45:38;;;;;;;14.27;5.70;;;;;;;4.35;81.67;100228.63;4268624;28;20241;-66
2022/12/28 10:48:27;;;;;;;10.87;4.83;;;;;;;4.27;81.34;100223.91;4235157;28;22159;-66
2022/12/28 10:50:58;;;;;;;18.67;4.70;;;;;;;4.18;80.93;100212.25;4223138;28;20302;-67
2022/12/28 10:53:26;;;;;;;14.50;5.67;;;;;;;4.12;81.64;100206.56;4248798;28;20387;-63
2022/12/28 10:56:11;;;;;;;16.57;5.30;;;;;;;4.14;80.28;100205.50;4246514;28;20283;-65
2022/12/28 10:58:49;;;;;;;18.67;5.10;;;;;;;4.17;80.73;100199.19;4269238;28;20246;-66
2022/12/28 11:01:27;;;;;;;15.80;4.97;;;;;;;4.05;80.87;100190.38;4234782;28;20329;-64
2022/12/28 11:03:54;;;;;;;17.20;4.80;;;;;;;3.97;81.20;100177.75;4260538;28;20568;-68
2022/12/28 11:06:28;;;;;;;16.40;4.63;;;;;;;3.93;80.50;100181.56;4272031;28;22907;-64
2022/12/28 11:09:05;;;;;;;11.67;4.50;;;;;;;4.04;80.42;100183.41;4253335;28;22067;-66
2022/12/28 11:11:33;;;;;;;12.03;4.73;;;;;;;4.01;80.43;100173.13;4225567;28;20238;-64
2022/12/28 11:14:08;;;;;;;15.97;4.67;;;;;;;4.02;80.38;100169.53;4275670;28;20373;-65
2022/12/28 11:16:39;;;;;;;14.73;4.63;;;;;;;4.07;79.80;100164.75;4257961;28;21270;-66
2022/12/28 11:19:06;;;;;;;8.00;4.00;;;;;;;3.99;80.30;100159.22;4230690;28;22351;-70
2022/12/28 11:21:33;;;;;;;13.27;4.50;;;;;;;3.96;79.77;100154.19;4260595;28;20394;-66
2022/12/28 11:24:00;;;;;;;13.50;4.40;;;;;;;3.85;80.63;100141.78;4240244;28;20230;-65
2022/12/28 11:26:28;;;;;;;16.57;5.00;;;;;;;3.91;79.77;100140.47;4248153;28;20409;-64
2022/12/28 11:28:55;;;;;;;16.27;4.37;;;;;;;3.91;80.67;100143.13;4246636;28;21047;-72
2022/12/28 11:31:26;;;;;;;12.13;4.37;;;;;;;3.90;81.32;100151.97;4263341;28;20237;-64
2022/12/28 11:33:57;;;;;;;10.73;4.63;;;;;;;3.91;82.31;100156.28;4232646;28;20228;-57
2022/12/28 11:36:24;;;;;;;14.33;5.07;;;;;;;4.40;85.66;100150.97;4233847;28;21833;-60
2022/12/28 11:38:54;;;;;;;19.07;5.90;;;;;;;4.39;80.25;100146.63;4228775;28;21452;-55
2022/12/28 11:41:23;;;;;;;20.37;6.30;;;;;;;4.21;80.03;100142.69;4252772;28;20573;-66
2022/12/28 11:44:01;;;;;;;17.83;6.07;;;;;;;3.97;81.04;100138.25;4254379;28;21958;-68
2022/12/28 11:46:34;;;;;;;21.37;6.53;;;;;;;3.93;82.01;100136.81;4255818;28;20235;-68
2022/12/28 11:49:02;;;;;;;19.60;6.47;;;;;;;3.97;82.01;100135.63;4245068;28;20232;-70
2022/12/28 11:51:31;;;;;;;18.67;6.50;;;;;;;3.92;81.94;100126.38;4248405;28;25873;-69
2022/12/28 11:54:00;;;;;;;15.77;5.90;;;;;;;3.89;82.26;100127.44;4245381;28;22016;-71
2022/12/28 11:56:48;;;;;;;14.13;5.73;;;;;;;3.92;83.51;100123.75;4266371;28;20231;-70
2022/12/28 11:59:24;;;;;;;15.40;5.97;;;;;;;3.91;82.65;100114.16;4284678;28;20453;-68
2022/12/28 12:01:53;;;;;;;16.03;6.37;;;;;;;3.92;82.97;100107.97;4234953;28;20234;-66
2022/12/28 12:04:29;;;;;;;16.53;6.63;;;;;;;3.96;82.60;100094.47;4244006;28;20446;-70
2022/12/28 12:07:00;;;;;;;17.10;5.87;;;;;;;3.99;82.77;100090.78;4241160;28;22480;-67
2022/12/28 13:08:47;;;;;;;14.50;5.63;;;;;;;3.81;83.99;99993.75;5222333;22;1251720;-70
2022/12/28 13:11:14;;;;;;;20.53;6.63;;;;;;;3.79;84.18;99979.88;5055478;23;21699;-72
2022/12/28 13:13:45;;;;;;;20.50;7.13;;;;;;;3.83;84.73;99980.50;5088973;23;20203;-72
2022/12/28 13:16:20;;;;;;;21.40;6.93;;;;;;;3.76;84.38;99969.56;5078008;23;20212;-69
2022/12/28 13:19:01;;;;;;;14.73;6.53;;;;;;;3.59;85.08;99980.50;5047168;23;20238;-69
2022/12/28 13:21:37;;;;;;;16.43;6.33;;;;;;;3.65;85.34;99977.41;5045207;23;20205;-68
2022/12/28 13:24:26;;;;;;;18.37;5.70;;;;;;;3.73;85.10;99968.97;5029146;23;22828;-70
2022/12/28 13:26:57;;;;;;;18.93;6.80;;;;;;;3.73;85.86;99964.53;5045099;23;20662;-68
2022/12/28 13:29:36;;;;;;;16.70;6.70;;;;;;;3.63;85.83;99958.28;5037826;23;21150;-70
2022/12/28 13:32:03;;;;;;;18.93;6.57;;;;;;;3.65;86.14;99951.09;5031880;23;22423;-72
2022/12/28 13:34:34;;;;;;;17.97;6.30;;;;;;;3.67;85.33;99948.34;5033261;23;21184;-72
2022/12/28 13:37:10;;;;;;;17.03;5.90;;;;;;;3.60;85.79;99947.97;5100600;23;20243;-72
2022/12/28 13:39:37;;;;;;;22.57;5.87;;;;;;;3.67;85.46;99949.19;5021756;23;20205;-73
2022/12/28 13:42:24;;;;;;;16.93;5.93;;;;;;;3.65;85.05;99951.09;5036784;23;20777;-69